createdAt,value
2018-05-13T05:26:39.689Z,94682.47
2018-05-13T05:29:08.269Z,94682.51
2018-05-13T05:31:36.832Z,94683.86
2018-05-13T05:34:05.400Z,94682.45
2018-05-13T05:36:33.955Z,94678.55
2018-05-13T05:39:02.644Z,94682.23
2018-05-13T05:41:31.253Z,94685.62
2018-05-13T05:43:59.814Z,94693.20
2018-05-13T05:46:28.421Z,94687.30
2018-05-13T05:48:57.044Z,94694.16
2018-05-13T05:51:25.620Z,94686.10
2018-05-13T05:53:54.260Z,94691.80
2018-05-13T05:56:22.856Z,94694.44
2018-05-13T05:58:51.429Z,94692.28
2018-05-13T06:01:19.994Z,94688.47
2018-05-13T06:03:48.564Z,94686.93
2018-05-13T06:06:17.210Z,94687.30
2018-05-13T06:08:45.776Z,94683.52
2018-05-13T06:11:14.347Z,94687.28
2018-05-13T06:13:42.913Z,94687.17
2018-05-13T06:16:11.508Z,94687.39
2018-05-13T06:18:40.113Z,94682.09
2018-05-13T06:21:08.715Z,94682.93
2018-05-13T06:23:37.267Z,94676.73
2018-05-13T06:26:05.871Z,94678.27
2018-05-13T06:28:34.507Z,94675.64
2018-05-13T06:31:03.152Z,94677.20
2018-05-13T06:33:31.809Z,94676.50
2018-05-13T06:36:00.371Z,94683.34
2018-05-13T06:38:29.010Z,94681.16
2018-05-13T06:40:57.651Z,94679.59
2018-05-13T06:43:26.273Z,94681.39
2018-05-13T06:45:54.839Z,94680.08
2018-05-13T06:48:24.207Z,94679.88
2018-05-13T06:50:52.952Z,94676.50
2018-05-13T06:53:21.618Z,94678.31
2018-05-13T06:55:50.182Z,94682.45
2018-05-13T06:58:18.750Z,94683.98
2018-05-13T07:00:47.364Z,94678.08
2018-05-13T07:03:15.994Z,94673.02
2018-05-13T07:05:44.565Z,94667.16
2018-05-13T07:08:13.135Z,94666.72
2018-05-13T07:10:41.704Z,94660.28
2018-05-13T07:13:10.465Z,94657.23
2018-05-13T07:15:39.027Z,94655.81
2018-05-13T07:18:07.628Z,94657.37
2018-05-13T07:20:36.174Z,94652.84
2018-05-13T07:23:04.803Z,94661.52
2018-05-13T07:25:33.370Z,94657.91
2018-05-13T07:28:01.936Z,94656.27
2018-05-13T07:30:30.544Z,94644.77
2018-05-13T07:32:59.105Z,94646.98
2018-05-13T07:35:27.669Z,94642.64
2018-05-13T07:37:56.245Z,94640.19
2018-05-13T07:40:24.830Z,94633.27
2018-05-13T07:42:53.499Z,94632.56
2018-05-13T07:45:22.065Z,94636.13
2018-05-13T07:47:50.623Z,94627.94
2018-05-13T07:50:19.188Z,94626.28
2018-05-13T07:52:47.777Z,94624.53
2018-05-13T07:55:16.355Z,94622.93
2018-05-13T07:57:44.928Z,94621.64
2018-05-13T08:00:13.554Z,94625.30
2018-05-13T08:02:41.771Z,94614.52
2018-05-13T08:05:10.343Z,94608.20
2018-05-13T08:07:38.971Z,94606.09
2018-05-13T08:10:07.535Z,94603.84
2018-05-13T08:12:36.124Z,94605.53
2018-05-13T08:15:04.030Z,94604.00
2018-05-13T08:17:32.602Z,94595.31
2018-05-13T08:20:01.189Z,94595.23
2018-05-13T08:22:29.773Z,94596.39
2018-05-13T08:24:58.372Z,94586.98
2018-05-13T08:27:26.606Z,94587.55
2018-05-13T08:29:55.173Z,94585.19
2018-05-13T08:32:23.757Z,94580.26
2018-05-13T08:34:52.387Z,94570.33
2018-05-13T08:37:20.975Z,94572.91
2018-05-13T08:39:49.539Z,94568.59
2018-05-13T08:42:18.094Z,94571.29
2018-05-13T08:44:46.691Z,94563.44
2018-05-13T08:47:15.284Z,94559.48
2018-05-13T08:49:43.859Z,94554.58
2018-05-13T08:52:12.446Z,94547.93
2018-05-13T08:54:41.026Z,94547.91
2018-05-13T08:57:09.649Z,94543.95
2018-05-13T08:59:38.231Z,94543.95
2018-05-13T09:02:06.808Z,94546.23
2018-05-13T09:04:35.413Z,94540.94
2018-05-13T09:07:03.991Z,94547.20
2018-05-13T09:09:32.610Z,94544.58
2018-05-13T09:12:01.196Z,94548.55
2018-05-13T09:14:29.840Z,94544.13
2018-05-13T09:16:58.564Z,94547.14
2018-05-13T09:19:27.128Z,94542.20
2018-05-13T09:21:55.689Z,94540.98
2018-05-13T09:24:24.957Z,94538.73
2018-05-13T09:26:53.533Z,94532.19
2018-05-13T09:29:22.118Z,94533.39
2018-05-13T09:31:50.737Z,94524.70
2018-05-13T09:34:19.290Z,94529.25
2018-05-13T09:36:47.850Z,94526.30
2018-05-13T09:39:16.424Z,94522.53
2018-05-13T09:41:45.025Z,94525.99
2018-05-13T09:44:13.600Z,94520.00
2018-05-13T09:46:42.191Z,94517.27
2018-05-13T09:49:10.755Z,94522.88
2018-05-13T09:51:39.358Z,94520.33
2018-05-13T09:54:07.941Z,94519.78
2018-05-13T09:56:36.513Z,94517.24
2018-05-13T09:59:04.724Z,94515.40
2018-05-13T10:01:33.295Z,94513.25
2018-05-13T10:04:01.921Z,94518.27
2018-05-13T10:06:30.668Z,94512.31
2018-05-13T10:08:59.263Z,94511.95
2018-05-13T10:11:27.831Z,94494.30
2018-05-13T10:13:56.414Z,94488.09
2018-05-13T10:16:24.984Z,94491.90
2018-05-13T10:18:53.539Z,94478.25
2018-05-13T10:21:22.119Z,94471.76
2018-05-13T10:23:50.681Z,94475.18
2018-05-13T10:26:19.262Z,94468.87
2018-05-13T10:28:47.619Z,94466.74
2018-05-13T10:31:16.264Z,94458.81
2018-05-13T10:33:44.835Z,94456.47
2018-05-13T10:36:14.338Z,94450.10
2018-05-13T10:38:42.884Z,94454.78
2018-05-13T10:41:11.450Z,94442.10
2018-05-13T10:43:40.011Z,94445.40
2018-05-13T10:46:08.583Z,94436.53
2018-05-13T10:48:37.180Z,94441.12
2018-05-13T10:51:05.729Z,94439.61
2018-05-13T10:53:34.288Z,94450.07
2018-05-13T10:56:02.876Z,94446.25
2018-05-13T11:01:05.400Z,94460.28
2018-05-13T11:03:33.970Z,94445.51
2018-05-13T11:06:02.551Z,94447.81
2018-05-13T11:08:31.124Z,94443.75
2018-05-13T11:10:59.678Z,94435.56
2018-05-13T11:13:28.072Z,94435.30
2018-05-13T11:15:56.642Z,94437.39
2018-05-13T11:18:25.234Z,94454.53
2018-05-13T11:20:53.795Z,94438.19
2018-05-13T11:23:23.256Z,94423.52
2018-05-13T11:25:51.810Z,94431.50
2018-05-13T11:28:20.982Z,94430.69
2018-05-13T11:30:49.555Z,94431.27
2018-05-13T11:33:18.125Z,94432.13
2018-05-13T11:35:46.675Z,94442.30
2018-05-13T11:38:15.232Z,94457.72
2018-05-13T11:40:43.849Z,94460.69
2018-05-13T11:43:12.399Z,94466.81
2018-05-13T11:45:42.715Z,94474.25
2018-05-13T11:48:11.361Z,94487.77
2018-05-13T11:50:39.941Z,94509.47
2018-05-13T11:53:08.523Z,94534.77
2018-05-13T11:55:37.096Z,94544.77
2018-05-13T11:58:05.698Z,94532.41
2018-05-13T12:00:34.307Z,94533.03
2018-05-13T12:03:04.531Z,94523.83
2018-05-13T12:05:33.091Z,94526.80
2018-05-13T12:08:01.687Z,94525.67
2018-05-13T12:10:30.499Z,94518.27
2018-05-13T12:12:59.169Z,94519.45
2018-05-13T12:15:28.801Z,94521.51
2018-05-13T12:17:58.212Z,94526.61
2018-05-13T12:20:27.867Z,94527.45
2018-05-13T12:22:56.472Z,94522.22
2018-05-13T12:25:25.194Z,94519.27
2018-05-13T12:27:54.181Z,94514.38
2018-05-13T12:30:24.822Z,94517.36
2018-05-13T12:32:53.565Z,94518.37
2018-05-13T12:35:22.356Z,94510.48
2018-05-13T12:37:51.429Z,94495.53
2018-05-13T12:40:20.857Z,94485.82
2018-05-13T12:42:50.337Z,94473.28
2018-05-13T12:45:18.955Z,94460.05
2018-05-13T12:47:47.716Z,94464.50
2018-05-13T12:50:16.461Z,94454.86
2018-05-13T12:52:45.091Z,94455.94
2018-05-13T12:55:13.697Z,94451.34
2018-05-13T12:57:42.321Z,94452.98
2018-05-13T13:00:10.939Z,94446.05
2018-05-13T13:02:39.492Z,94441.66
2018-05-13T13:05:08.051Z,94438.27
2018-05-13T13:07:54.190Z,94430.94
2018-05-13T13:10:31.506Z,94424.70
2018-05-13T13:13:00.800Z,94424.89
2018-05-13T13:15:29.464Z,94422.96
2018-05-13T13:17:58.019Z,94429.89
2018-05-13T13:20:26.632Z,94422.95
2018-05-13T13:22:54.959Z,94416.69
2018-05-13T13:25:23.242Z,94416.95
2018-05-13T13:27:51.795Z,94415.78
2018-05-13T13:30:20.482Z,94407.69
2018-05-13T13:32:48.933Z,94404.84
2018-05-13T13:35:17.552Z,94400.72
2018-05-13T13:37:51.585Z,94401.78
2018-05-13T13:40:20.304Z,94399.96
2018-05-13T13:42:48.942Z,94396.27
2018-05-13T13:45:17.510Z,94398.56
2018-05-13T13:47:46.156Z,94398.43
2018-05-13T13:50:14.724Z,94396.09
2018-05-13T13:52:43.315Z,94392.64
2018-05-13T13:55:11.895Z,94409.82
2018-05-13T13:57:40.452Z,94401.02
2018-05-13T14:00:11.339Z,94406.95
2018-05-13T14:02:39.957Z,94412.92
2018-05-13T14:05:08.604Z,94416.75
2018-05-13T14:07:37.174Z,94420.80
2018-05-13T14:10:06.868Z,94421.59
2018-05-13T14:12:35.685Z,94426.30
2018-05-13T14:15:04.227Z,94421.77
2018-05-13T14:17:32.788Z,94426.17
2018-05-13T14:20:03.480Z,94421.23
2018-05-13T14:22:32.174Z,94416.08
2018-05-13T14:25:01.934Z,94412.61
2018-05-13T14:27:30.519Z,94411.16
2018-05-13T14:29:59.072Z,94411.28
2018-05-13T14:32:27.737Z,94409.16
2018-05-13T14:34:56.287Z,94408.39
2018-05-13T14:37:31.362Z,94402.26
2018-05-13T14:40:00.072Z,94403.73
2018-05-13T14:42:33.098Z,94399.03
2018-05-13T14:45:01.714Z,94391.83
2018-05-13T14:47:33.860Z,94390.55
2018-05-13T14:50:02.569Z,94389.30
2018-05-13T14:52:31.115Z,94387.96
2018-05-13T14:54:59.879Z,94383.30
2018-05-13T14:57:28.444Z,94378.23
2018-05-13T14:59:56.991Z,94382.81
2018-05-13T15:02:25.752Z,94387.38
2018-05-13T15:04:54.901Z,94388.34
2018-05-13T15:07:30.913Z,94392.09
2018-05-13T15:09:59.904Z,94393.59
2018-05-13T15:12:29.480Z,94398.09
2018-05-13T15:14:58.128Z,94399.42
2018-05-13T15:17:26.694Z,94392.02
2018-05-13T15:19:55.251Z,94388.78
2018-05-13T15:22:30.211Z,94384.40
2018-05-13T15:24:58.967Z,94391.63
2018-05-13T15:27:29.881Z,94397.09
2018-05-13T15:29:58.140Z,94396.42
2018-05-13T15:32:26.699Z,94395.23
2018-05-13T15:34:55.294Z,94397.23
2018-05-13T15:37:23.858Z,94403.09
2018-05-13T15:39:52.423Z,94399.63
2018-05-13T15:42:21.025Z,94399.76
2018-05-13T15:44:49.591Z,94398.30
2018-05-13T15:47:18.143Z,94397.64
2018-05-13T15:49:46.704Z,94398.30
2018-05-13T15:52:15.323Z,94404.01
2018-05-13T15:54:43.947Z,94414.11
2018-05-13T15:57:12.512Z,94408.92
2018-05-13T15:59:41.141Z,94415.94
2018-05-13T16:02:09.726Z,94417.76
2018-05-13T16:04:38.348Z,94406.84
2018-05-13T16:07:06.960Z,94411.05
2018-05-13T16:09:35.594Z,94412.22
2018-05-13T16:12:03.855Z,94414.05
2018-05-13T16:14:32.439Z,94418.84
2018-05-13T16:17:01.405Z,94423.32
2018-05-13T16:19:30.105Z,94421.67
2018-05-13T16:21:58.671Z,94417.39
2018-05-13T16:24:27.236Z,94433.16
2018-05-13T16:26:55.497Z,94440.80
2018-05-13T16:29:25.069Z,94439.91
2018-05-13T16:31:53.662Z,94441.27
2018-05-13T16:34:22.232Z,94438.50
2018-05-13T16:36:50.799Z,94442.48
2018-05-13T16:39:19.401Z,94444.56
2018-05-13T16:41:48.008Z,94437.58
2018-05-13T16:44:16.573Z,94447.79
2018-05-13T16:46:45.137Z,94445.94
2018-05-13T16:49:14.095Z,94441.44
2018-05-13T16:51:42.655Z,94436.10
2018-05-13T16:54:11.232Z,94437.43
2018-05-13T16:59:23.753Z,94449.89
2018-05-13T17:01:52.401Z,94453.70
2018-05-13T17:04:20.980Z,94451.85
2018-05-13T17:06:49.568Z,94458.36
2018-05-13T17:09:17.887Z,94466.89
2018-05-13T17:11:47.515Z,94465.32
2018-05-13T17:14:16.195Z,94470.91
2018-05-13T17:16:44.826Z,94477.63
2018-05-13T17:19:13.555Z,94479.36
2018-05-13T17:21:42.139Z,94480.66
2018-05-13T17:24:10.733Z,94494.08
2018-05-13T17:26:39.287Z,94500.14
2018-05-13T17:29:07.895Z,94507.02
2018-05-13T17:31:36.465Z,94513.13
2018-05-13T17:34:05.095Z,94511.38
2018-05-13T17:36:33.806Z,94507.73
2018-05-13T17:39:02.370Z,94508.80
2018-05-13T17:41:31.903Z,94505.84
2018-05-13T17:44:00.469Z,94512.94
2018-05-13T17:46:30.110Z,94513.00
2018-05-13T17:48:58.703Z,94510.14
2018-05-13T17:51:27.282Z,94504.80
2018-05-13T17:53:55.883Z,94501.16
2018-05-13T17:56:24.108Z,94500.14
2018-05-13T17:58:52.729Z,94497.42
2018-05-13T18:01:21.305Z,94494.30
2018-05-13T18:03:49.868Z,94496.41
2018-05-13T18:06:18.497Z,94511.03
2018-05-13T18:08:47.092Z,94517.92
2018-05-13T18:11:15.739Z,94517.83
2018-05-13T18:13:44.755Z,94526.59
2018-05-13T18:16:13.317Z,94527.70
2018-05-13T18:18:42.079Z,94537.45
2018-05-13T18:21:10.644Z,94535.28
2018-05-13T18:23:39.210Z,94535.05
2018-05-13T18:26:09.116Z,94530.69
2018-05-13T18:28:37.685Z,94538.03
2018-05-13T18:31:06.330Z,94526.98
2018-05-13T18:33:35.032Z,94529.01
2018-05-13T18:36:03.634Z,94511.29
2018-05-13T18:38:32.251Z,94501.00
2018-05-13T18:41:00.809Z,94500.48
2018-05-13T18:43:29.418Z,94505.05
2018-05-13T18:45:57.971Z,94501.55
2018-05-13T18:48:26.203Z,94501.53
2018-05-13T18:50:54.755Z,94498.37
2018-05-13T18:53:23.330Z,94502.22
2018-05-13T18:55:51.971Z,94498.33
2018-05-13T18:58:20.530Z,94501.31
2018-05-13T19:00:49.091Z,94500.51
2018-05-13T19:03:17.653Z,94493.56
2018-05-13T19:05:46.222Z,94493.28
2018-05-13T19:08:14.791Z,94488.96
2018-05-13T19:10:43.856Z,94487.69
2018-05-13T19:13:12.458Z,94485.58
2018-05-13T19:15:41.041Z,94479.14
2018-05-13T19:18:09.607Z,94475.39
2018-05-13T19:20:38.165Z,94471.42
2018-05-13T19:23:06.754Z,94477.51
2018-05-13T19:25:35.366Z,94481.77
2018-05-13T19:28:04.848Z,94477.97
2018-05-13T19:30:33.458Z,94483.03
2018-05-13T19:33:02.122Z,94493.03
2018-05-13T19:35:30.723Z,94485.45
2018-05-13T19:37:59.522Z,94482.19
2018-05-13T19:40:28.096Z,94484.64
2018-05-13T19:42:56.683Z,94484.08
2018-05-13T19:45:25.287Z,94489.98
2018-05-13T19:47:53.860Z,94488.26
2018-05-13T19:50:22.931Z,94480.84
2018-05-13T19:52:51.530Z,94483.51
2018-05-13T19:55:20.123Z,94485.47
2018-05-13T19:57:48.685Z,94491.53
2018-05-13T20:00:17.294Z,94490.73
2018-05-13T20:02:45.896Z,94488.09
2018-05-13T20:05:14.657Z,94496.55
2018-05-13T20:07:44.105Z,94502.98
2018-05-13T20:10:12.707Z,94499.30
2018-05-13T20:12:41.297Z,94507.17
2018-05-13T20:15:09.895Z,94511.24
